Pleasant Gap, North Carolina
Current Conditions -  °F | °C
As of 11:35 AM on Saturday 22 Nov 2014 (Local Time) from K0A9 Reporting Station
Clear Clear  
Wind Chill: 48°   Ceiling: Unl
Heat Index: 48°   Visibility: 10mi
Dew Point: 19°   Wind: 0mph
Humidity: 32%   Direction: NA
Pressure: 30.38"   Gusts: NA
Location:  35.955°N, 82.2044°W
Report Text: K0A9 221635Z AUTO 00000KT 10SM CLR 09/M07 A3038 RMK
Loading
Personal Weather Stations






























Interactive Weather Map New forecast layout! Learn more

10-Day Weather Forecast

Advertisements
Track Severe Weather on mobile